Startpagina
METAR-TAF:

METAR-TAF

Vliegvelden :

Flughafen Frankfurt-Hahn

Hahn, Duitsland

breedte: 49-57N, lengte: 007-16E, hoogte: 491 m

Actueel weer

Dit bericht is 15 minuten geleden gemaakt, om 19:20 UTC
Wind 7 kt uit het zuidzuidoosten
Temperatuur 17°C
Vochtigheid 55%
Druk 1016 hPa
Zicht 10 km of meer
geen wolken onder 1500 m en geen cumulonimbus

METAR: EDFH 151920Z 15007KT CAVOK 17/08 Q1016

Tijdstip: 21:35 (19:35 UTC)

Verwachting

Dit bericht is 2 uur en het 35 minuten geleden gemaakt, om 17:00 UTC
Verwachting geldig van 15 om 18 UTC tot 16 om 18 UTC
Wind 4 kt uit het oostzuidoosten
Zicht 10 km of meer
geen wolken onder 1500 m en geen cumulonimbus

TAF: EDFH 151700Z 1518/1618 12004KT CAVOK

Waarnemingen en weersverwachtingen van meer dan 4000 vliegvelden (METAR en TAF).

De beschikbare stations zijn de gele en rode punten op de kaart.

Ga met uw muis naar het station om de naam te zien.

Klik dan om waarnemingen en weersverwachtingen te zien.

kaart wijzigen: klik op de groene knoppen met een zwart kruis om in te zoomen, op de groene knop met een streepje om uit te zoomen of op de groene pijlen voor aangrenzende kaarten.


METAR-TAF: